Time;durP1;ratioP1;P1;durP2;ratioP2;P2;SDS_P1;SDS_P2;PMS_P1;PMS_P2;Temp;Humidity;BMP_temperature;BMP_pressure;BME280_temperature;BME280_humidity;BME280_pressure;Samples;Min_cycle;Max_cycle;Signal;HPM_P1;HPM_P2
2023/09/15 00:01:41;;;;;;;5.20;4.70;;;21.10;76.10;;;;;;5108971;28;20937;-72
2023/09/15 00:04:11;;;;;;;4.00;3.70;;;21.20;76.00;;;;;;5106827;28;20449;-72
2023/09/15 00:06:41;;;;;;;4.83;4.53;;;21.10;76.20;;;;;;5097839;28;20436;-73
2023/09/15 00:09:14;;;;;;;4.97;4.67;;;21.00;76.50;;;;;;5101174;27;20476;-72
2023/09/15 00:11:43;;;;;;;5.17;4.67;;;21.00;76.60;;;;;;5106304;27;20536;-72
2023/09/15 00:14:13;;;;;;;4.87;4.47;;;20.90;76.70;;;;;;5111443;28;20939;-72
2023/09/15 00:16:44;;;;;;;4.63;4.30;;;20.90;76.80;;;;;;5111894;28;20440;-72
2023/09/15 00:19:16;;;;;;;5.40;4.90;;;20.90;76.90;;;;;;5097398;28;20475;-72
2023/09/15 00:21:48;;;;;;;6.10;4.90;;;20.90;77.00;;;;;;5095003;28;20488;-72
2023/09/15 00:24:16;;;;;;;4.97;4.47;;;20.90;76.80;;;;;;5102982;28;20516;-73
2023/09/15 00:26:44;;;;;;;4.73;4.33;;;20.90;77.00;;;;;;5096331;27;20456;-72
2023/09/15 00:29:13;;;;;;;5.70;5.10;;;21.00;76.90;;;;;;5100314;27;20463;-73
2023/09/15 00:31:42;;;;;;;5.00;4.13;;;21.00;76.70;;;;;;5109293;28;21064;-73
2023/09/15 00:34:14;;;;;;;4.80;4.40;;;20.90;77.10;;;;;;5110096;28;20467;-73
2023/09/15 00:36:45;;;;;;;5.57;5.07;;;20.70;77.40;;;;;;5086671;28;20452;-73
2023/09/15 00:39:13;;;;;;;4.67;4.27;;;20.70;77.60;;;;;;5113504;27;21031;-73
2023/09/15 00:41:43;;;;;;;5.70;5.20;;;20.70;77.70;;;;;;5104360;28;20484;-73
2023/09/15 00:44:11;;;;;;;4.50;4.10;;;20.70;77.70;;;;;;5105531;28;20440;-73
2023/09/15 00:46:40;;;;;;;5.70;4.97;;;20.70;77.80;;;;;;5100180;28;20509;-73
2023/09/15 00:49:10;;;;;;;7.13;4.97;;;20.70;77.80;;;;;;5100381;28;20813;-73
2023/09/15 00:51:39;;;;;;;7.90;5.20;;;20.70;77.80;;;;;;5111041;28;20479;-71
2023/09/15 00:54:08;;;;;;;5.90;4.93;;;20.70;77.80;;;;;;5107544;28;20472;-72
2023/09/15 00:56:37;;;;;;;6.90;6.30;;;20.70;78.00;;;;;;5110539;27;20470;-72
2023/09/15 00:59:07;;;;;;;6.60;4.70;;;20.60;77.90;;;;;;5110241;28;20454;-72
2023/09/15 01:01:35;;;;;;;6.13;4.83;;;20.60;78.10;;;;;;5109220;28;21278;-72
2023/09/15 01:04:05;;;;;;;6.20;5.27;;;20.60;78.20;;;;;;5106859;28;20446;-73
2023/09/15 01:06:37;;;;;;;6.63;4.87;;;20.60;78.20;;;;;;5093715;28;20448;-73
2023/09/15 01:09:07;;;;;;;6.23;5.60;;;20.60;78.20;;;;;;5097747;27;20855;-73
2023/09/15 01:11:36;;;;;;;6.23;5.67;;;20.50;78.40;;;;;;5111637;27;20452;-73
2023/09/15 01:14:04;;;;;;;6.40;5.80;;;20.50;78.40;;;;;;5110211;28;20440;-73
2023/09/15 01:16:38;;;;;;;6.10;5.60;;;20.50;78.60;;;;;;5109381;27;21025;-73
2023/09/15 01:19:22;;;;;;;6.40;5.80;;;20.40;78.70;;;;;;5111323;28;20787;-72
2023/09/15 01:22:24;;;;;;;5.07;4.60;;;20.40;78.80;;;;;;5111068;28;20563;-73
2023/09/15 01:25:31;;;;;;;6.67;5.17;;;20.40;78.90;;;;;;5089555;27;20470;-73
2023/09/15 01:28:17;;;;;;;5.90;5.20;;;20.50;78.60;;;;;;5112848;27;20446;-73
2023/09/15 01:30:49;;;;;;;6.20;5.27;;;20.50;78.40;;;;;;5117650;27;20545;-73
2023/09/15 01:33:19;;;;;;;5.37;4.97;;;20.50;78.40;;;;;;5110850;28;20457;-73
2023/09/15 01:35:49;;;;;;;6.17;5.00;;;20.50;78.60;;;;;;5111898;28;20494;-73
2023/09/15 01:38:17;;;;;;;5.80;5.30;;;20.60;78.40;;;;;;5112033;28;20411;-73
2023/09/15 01:40:46;;;;;;;7.97;6.40;;;20.60;78.20;;;;;;5084948;28;20550;-73
2023/09/15 01:43:14;;;;;;;8.83;5.63;;;20.70;78.00;;;;;;5108683;28;20446;-73
2023/09/15 01:45:42;;;;;;;6.00;5.40;;;20.70;78.10;;;;;;5130772;28;20499;-72
2023/09/15 01:48:12;;;;;;;5.87;5.33;;;20.60;78.30;;;;;;5119804;28;20486;-73
2023/09/15 01:50:42;;;;;;;6.77;6.17;;;20.70;78.00;;;;;;5101873;27;20504;-72
2023/09/15 01:53:10;;;;;;;5.50;5.03;;;20.60;78.20;;;;;;5115811;28;20428;-73
2023/09/15 01:55:39;;;;;;;7.50;5.87;;;20.60;78.20;;;;;;5097504;28;20458;-73
2023/09/15 01:58:07;;;;;;;6.20;5.60;;;20.60;78.30;;;;;;5115456;28;20422;-73
2023/09/15 02:00:36;;;;;;;7.40;6.10;;;20.50;78.50;;;;;;5096702;28;20448;-73
2023/09/15 02:03:05;;;;;;;5.90;5.30;;;20.60;78.60;;;;;;5097386;28;20479;-73
2023/09/15 02:05:35;;;;;;;7.00;5.63;;;20.60;78.50;;;;;;5116167;28;20454;-73
2023/09/15 02:08:03;;;;;;;7.00;6.40;;;20.60;78.40;;;;;;5097294;28;20443;-73
2023/09/15 02:10:32;;;;;;;5.80;5.30;;;20.60;78.40;;;;;;5115531;28;20465;-73
2023/09/15 02:13:00;;;;;;;6.90;6.20;;;20.60;78.30;;;;;;5095667;28;20438;-73
2023/09/15 02:15:30;;;;;;;7.30;6.20;;;20.60;78.30;;;;;;5112639;27;20451;-73
2023/09/15 02:17:59;;;;;;;6.27;5.77;;;20.60;78.30;;;;;;5095543;28;20772;-73
2023/09/15 02:20:28;;;;;;;6.77;6.17;;;20.60;78.30;;;;;;5118934;27;20485;-73
2023/09/15 02:23:03;;;;;;;6.50;5.90;;;20.60;78.50;;;;;;5135789;27;20771;-73
2023/09/15 02:25:31;;;;;;;6.93;6.33;;;20.60;78.50;;;;;;5117476;27;20453;-73
2023/09/15 02:28:02;;;;;;;6.60;6.00;;;20.50;78.60;;;;;;5114520;28;20427;-73
2023/09/15 02:30:31;;;;;;;7.77;6.40;;;20.50;79.00;;;;;;5114681;28;20470;-73
2023/09/15 02:32:59;;;;;;;6.90;6.13;;;20.40;79.00;;;;;;5115448;28;20474;-73
2023/09/15 02:35:28;;;;;;;7.87;7.10;;;20.50;79.20;;;;;;5115059;28;20482;-73
2023/09/15 02:37:58;;;;;;;6.30;5.73;;;20.50;79.30;;;;;;5108968;28;20798;-73
2023/09/15 02:40:26;;;;;;;6.70;6.10;;;20.40;79.40;;;;;;5095055;28;20421;-73
2023/09/15 02:42:54;;;;;;;7.47;6.47;;;20.50;79.40;;;;;;5075625;28;20436;-73
2023/09/15 02:45:23;;;;;;;6.73;6.13;;;20.50;79.30;;;;;;5110252;27;20505;-73
2023/09/15 02:47:51;;;;;;;6.93;6.07;;;20.50;79.40;;;;;;5094186;28;20460;-72
2023/09/15 02:50:20;;;;;;;8.30;6.60;;;20.50;79.50;;;;;;5095086;27;20471;-72
2023/09/15 02:52:48;;;;;;;6.50;5.93;;;20.50;79.40;;;;;;5124218;27;20496;-73
2023/09/15 02:55:18;;;;;;;6.90;6.40;;;20.50;79.40;;;;;;5126045;27;20987;-73
2023/09/15 02:57:46;;;;;;;6.87;6.23;;;20.40;79.70;;;;;;5113905;28;20446;-73
2023/09/15 03:00:15;;;;;;;9.00;6.70;;;20.50;79.70;;;;;;5096109;28;20445;-73
2023/09/15 03:02:44;;;;;;;6.80;6.20;;;20.40;79.70;;;;;;5113523;28;20470;-73
2023/09/15 03:05:13;;;;;;;7.37;6.57;;;20.50;79.70;;;;;;5091406;28;20502;-73
2023/09/15 03:07:42;;;;;;;6.03;5.53;;;20.50;79.70;;;;;;5105035;28;20455;-73
2023/09/15 03:10:12;;;;;;;6.80;6.20;;;20.40;80.00;;;;;;5096561;28;20563;-74
2023/09/15 03:12:42;;;;;;;7.73;6.40;;;20.40;79.80;;;;;;5113618;28;20440;-73
2023/09/15 03:15:11;;;;;;;7.20;6.50;;;20.40;79.90;;;;;;5103567;28;20462;-73
2023/09/15 03:17:40;;;;;;;7.67;6.97;;;20.40;79.90;;;;;;5094099;28;20464;-73
2023/09/15 03:20:13;;;;;;;7.33;6.63;;;20.40;80.00;;;;;;5095057;27;21011;-73
2023/09/15 03:22:41;;;;;;;8.77;6.97;;;20.40;80.10;;;;;;5112950;27;20507;-73
2023/09/15 03:25:10;;;;;;;6.00;5.40;;;20.40;80.10;;;;;;5105501;28;20448;-73
2023/09/15 03:27:39;;;;;;;7.33;6.30;;;20.40;79.90;;;;;;5102738;28;20460;-73
2023/09/15 03:30:11;;;;;;;7.37;6.67;;;20.50;79.80;;;;;;5076011;28;20480;-73
2023/09/15 03:32:39;;;;;;;7.83;6.87;;;20.50;79.70;;;;;;5112750;28;20447;-72
2023/09/15 03:35:08;;;;;;;7.17;6.20;;;20.50;79.80;;;;;;5114108;28;20440;-72
2023/09/15 03:37:36;;;;;;;6.40;5.80;;;20.50;79.70;;;;;;5114381;28;20430;-72
2023/09/15 03:40:11;;;;;;;8.57;7.87;;;20.50;79.70;;;;;;5084387;28;20450;-73
2023/09/15 03:42:40;;;;;;;6.80;6.20;;;20.50;79.80;;;;;;5074544;28;21286;-73
2023/09/15 03:45:10;;;;;;;8.83;7.27;;;20.40;80.10;;;;;;5105468;27;20808;-73
2023/09/15 03:47:39;;;;;;;7.20;6.60;;;20.40;80.20;;;;;;5075030;28;20557;-73
2023/09/15 03:50:09;;;;;;;7.43;6.63;;;20.40;80.30;;;;;;5094976;27;20464;-73
2023/09/15 03:52:38;;;;;;;8.00;7.30;;;20.30;80.40;;;;;;5129469;27;20521;-73
2023/09/15 03:55:07;;;;;;;7.20;6.50;;;20.20;80.70;;;;;;5110149;28;20491;-74
2023/09/15 03:57:36;;;;;;;6.53;6.00;;;20.20;80.70;;;;;;5101321;28;20441;-73
2023/09/15 04:00:11;;;;;;;6.90;6.30;;;20.10;80.80;;;;;;5075386;28;20509;-74
2023/09/15 04:02:41;;;;;;;7.27;6.60;;;20.10;80.90;;;;;;5093406;28;20456;-74
2023/09/15 04:05:10;;;;;;;7.00;6.40;;;20.10;80.90;;;;;;5113383;28;20507;-75
2023/09/15 04:07:39;;;;;;;9.33;6.87;;;20.10;80.80;;;;;;5095250;28;21025;-74
2023/09/15 04:10:08;;;;;;;6.70;6.10;;;20.10;80.70;;;;;;5112710;28;20474;-73
2023/09/15 04:12:36;;;;;;;7.97;6.80;;;20.00;81.00;;;;;;5109984;28;20964;-73
2023/09/15 04:15:05;;;;;;;7.47;6.70;;;20.00;81.20;;;;;;5110897;27;20459;-73
2023/09/15 04:17:33;;;;;;;6.90;6.20;;;20.00;81.10;;;;;;5111854;27;20467;-73
2023/09/15 04:20:08;;;;;;;6.47;5.87;;;20.00;81.00;;;;;;5092928;28;20450;-74
2023/09/15 04:22:38;;;;;;;7.33;6.73;;;20.00;80.80;;;;;;5090095;28;20459;-73
2023/09/15 04:25:08;;;;;;;6.80;6.03;;;19.90;81.00;;;;;;5093826;28;20444;-74
2023/09/15 04:27:36;;;;;;;7.07;6.37;;;19.90;81.00;;;;;;5110841;28;20459;-74
2023/09/15 04:30:06;;;;;;;6.67;6.10;;;19.90;80.80;;;;;;5111422;28;20935;-73
2023/09/15 04:32:41;;;;;;;5.80;5.30;;;19.90;80.70;;;;;;5091343;28;20450;-74
2023/09/15 04:35:12;;;;;;;6.30;5.80;;;19.90;80.80;;;;;;5093998;28;20459;-74
2023/09/15 04:37:41;;;;;;;7.00;6.40;;;19.90;80.60;;;;;;5093136;28;20455;-74
2023/09/15 04:40:11;;;;;;;9.17;6.00;;;19.90;80.70;;;;;;5082493;28;20455;-73
2023/09/15 04:42:40;;;;;;;6.50;5.90;;;19.80;80.80;;;;;;5110826;27;20446;-74
2023/09/15 04:45:09;;;;;;;7.37;5.70;;;19.90;80.70;;;;;;5101818;28;20796;-74
2023/09/15 04:47:40;;;;;;;6.00;5.40;;;20.00;80.40;;;;;;5103722;27;20574;-73
2023/09/15 04:50:23;;;;;;;6.73;6.07;;;19.80;80.70;;;;;;5104286;27;20482;-74
2023/09/15 04:52:52;;;;;;;6.47;5.87;;;19.80;80.50;;;;;;5096788;28;20496;-73
2023/09/15 04:55:20;;;;;;;6.40;4.50;;;19.70;80.90;;;;;;5088316;28;20514;-74
2023/09/15 04:57:49;;;;;;;7.30;5.83;;;19.70;80.70;;;;;;5102791;28;20446;-73
2023/09/15 05:00:23;;;;;;;5.27;4.77;;;19.70;81.00;;;;;;5090256;28;20450;-72
2023/09/15 05:02:57;;;;;;;6.33;5.73;;;19.80;81.50;;;;;;5082764;28;20838;-72
2023/09/15 05:05:30;;;;;;;5.83;5.30;;;20.10;81.10;;;;;;5081492;28;21037;-73
2023/09/15 05:07:59;;;;;;;6.33;5.27;;;20.40;80.70;;;;;;5084492;28;20454;-73
2023/09/15 05:10:28;;;;;;;5.80;4.87;;;20.80;79.90;;;;;;5082422;28;20963;-73
2023/09/15 05:12:58;;;;;;;6.90;5.07;;;21.00;79.10;;;;;;5097001;28;20448;-73
2023/09/15 05:15:28;;;;;;;5.27;4.77;;;21.10;78.40;;;;;;5074856;28;20828;-73
2023/09/15 05:17:56;;;;;;;4.67;4.27;;;21.10;78.10;;;;;;5080698;28;20463;-73
2023/09/15 05:20:26;;;;;;;5.63;5.13;;;21.10;78.10;;;;;;5090582;28;22416;-73
2023/09/15 05:22:55;;;;;;;5.80;5.30;;;21.20;78.20;;;;;;5088969;28;20523;-73
2023/09/15 05:25:23;;;;;;;4.90;4.50;;;21.30;77.90;;;;;;5081662;28;20476;-73
2023/09/15 05:27:52;;;;;;;7.50;4.50;;;21.50;79.80;;;;;;5088600;28;21404;-73
2023/09/15 05:30:20;;;;;;;5.40;4.70;;;21.80;79.50;;;;;;5080579;28;20535;-73
2023/09/15 05:32:48;;;;;;;5.23;4.73;;;22.20;78.40;;;;;;5091113;28;20441;-73
2023/09/15 05:35:17;;;;;;;5.73;5.07;;;22.30;75.40;;;;;;5089989;28;20552;-73
2023/09/15 05:37:45;;;;;;;6.47;5.70;;;22.40;75.30;;;;;;5084573;28;20451;-73
2023/09/15 05:40:14;;;;;;;5.33;4.90;;;22.30;74.80;;;;;;5085133;28;20478;-73
2023/09/15 05:42:43;;;;;;;5.03;4.63;;;22.30;74.80;;;;;;5090526;28;20451;-73
2023/09/15 05:45:12;;;;;;;5.97;5.23;;;22.30;75.00;;;;;;5105508;28;20448;-73
2023/09/15 05:47:40;;;;;;;8.70;5.53;;;22.20;74.90;;;;;;5093879;28;20452;-73
2023/09/15 05:50:09;;;;;;;7.10;6.00;;;22.20;75.00;;;;;;5114044;28;20454;-73
2023/09/15 05:52:37;;;;;;;7.43;5.83;;;22.20;75.10;;;;;;5107103;28;20471;-73
2023/09/15 05:55:06;;;;;;;9.73;7.30;;;22.10;76.40;;;;;;5097036;28;20440;-73
2023/09/15 05:57:36;;;;;;;17.37;7.63;;;22.10;76.80;;;;;;5106236;28;20449;-73
2023/09/15 06:00:06;;;;;;;9.00;5.83;;;22.10;78.90;;;;;;5106341;28;20459;-74
2023/09/15 06:02:38;;;;;;;13.80;6.40;;;22.30;80.50;;;;;;5101792;28;20519;-74
2023/09/15 06:05:08;;;;;;;10.90;5.77;;;22.60;80.20;;;;;;5103327;28;20844;-74
2023/09/15 06:07:37;;;;;;;5.90;5.20;;;22.90;79.00;;;;;;5106221;28;20428;-75
2023/09/15 06:10:07;;;;;;;8.93;6.23;;;23.20;78.20;;;;;;5102076;28;20448;-75
2023/09/15 06:12:37;;;;;;;7.97;5.37;;;23.40;73.90;;;;;;5104972;28;20460;-74
2023/09/15 06:15:06;;;;;;;7.50;4.80;;;23.40;74.80;;;;;;5093628;28;20931;-74
2023/09/15 06:17:34;;;;;;;5.80;5.30;;;23.30;74.30;;;;;;5108407;28;20472;-75
2023/09/15 06:20:04;;;;;;;6.93;5.47;;;23.20;73.50;;;;;;5098502;28;20453;-75
2023/09/15 06:22:34;;;;;;;9.80;5.93;;;22.90;74.70;;;;;;5094204;28;20450;-75
2023/09/15 06:25:04;;;;;;;8.93;6.50;;;22.90;76.00;;;;;;5106683;28;20447;-75
2023/09/15 06:27:33;;;;;;;6.30;5.70;;;23.00;74.90;;;;;;5107153;28;20455;-74
2023/09/15 06:30:04;;;;;;;7.87;6.77;;;23.00;74.40;;;;;;5101759;28;20478;-74
2023/09/15 06:32:32;;;;;;;5.70;5.10;;;23.00;75.10;;;;;;5087333;28;20473;-74
2023/09/15 06:35:00;;;;;;;6.70;6.07;;;23.00;75.80;;;;;;5110034;28;20467;-74
2023/09/15 06:37:29;;;;;;;6.33;5.77;;;23.00;75.00;;;;;;5113500;28;20440;-74
2023/09/15 06:39:57;;;;;;;7.40;6.43;;;23.00;74.20;;;;;;5109829;28;20450;-74
2023/09/15 06:42:25;;;;;;;5.07;4.53;;;22.90;74.60;;;;;;5111825;28;20442;-74
2023/09/15 06:44:55;;;;;;;6.07;5.27;;;23.00;76.20;;;;;;5092529;28;20438;-74
2023/09/15 06:47:25;;;;;;;6.80;6.20;;;23.10;75.30;;;;;;5103972;28;20449;-74
2023/09/15 06:49:53;;;;;;;5.97;5.07;;;23.10;73.90;;;;;;5105489;28;20451;-74
2023/09/15 06:52:21;;;;;;;6.63;5.80;;;23.10;74.90;;;;;;5114420;27;20469;-74
2023/09/15 06:54:49;;;;;;;6.77;5.80;;;23.20;75.60;;;;;;5112121;28;20958;-74
2023/09/15 06:57:18;;;;;;;4.87;4.20;;;23.30;74.10;;;;;;5112716;28;21030;-74
2023/09/15 06:59:46;;;;;;;5.57;5.07;;;23.40;74.80;;;;;;5093811;28;20465;-74
2023/09/15 07:02:14;;;;;;;7.13;6.50;;;23.50;73.90;;;;;;5105003;28;20440;-74
2023/09/15 07:04:47;;;;;;;6.50;5.90;;;23.50;73.80;;;;;;5112569;28;20483;-74
2023/09/15 07:07:16;;;;;;;6.60;4.80;;;23.60;73.80;;;;;;5110499;28;20454;-74
2023/09/15 07:09:44;;;;;;;5.17;4.40;;;23.60;73.70;;;;;;5113500;28;20432;-74
2023/09/15 07:12:12;;;;;;;6.53;5.60;;;23.70;75.10;;;;;;5109026;28;20468;-75
2023/09/15 07:14:41;;;;;;;6.23;5.60;;;23.70;73.10;;;;;;5110113;28;20443;-74
2023/09/15 07:17:09;;;;;;;7.00;6.30;;;23.60;73.70;;;;;;5113186;28;20437;-74
2023/09/15 07:19:37;;;;;;;7.07;6.23;;;23.60;73.50;;;;;;5109961;28;20534;-74
2023/09/15 07:22:07;;;;;;;8.07;7.27;;;23.70;74.70;;;;;;5116974;27;20475;-74
2023/09/15 07:24:40;;;;;;;6.70;6.00;;;23.70;72.90;;;;;;5117762;27;20468;-74
2023/09/15 07:27:09;;;;;;;6.00;4.67;;;23.70;74.10;;;;;;5097809;27;20455;-76
2023/09/15 07:29:38;;;;;;;12.03;6.70;;;23.80;73.40;;;;;;5111025;28;20449;-75
2023/09/15 07:32:07;;;;;;;7.80;7.00;;;23.80;72.60;;;;;;5109712;28;20518;-76
2023/09/15 07:34:36;;;;;;;8.63;7.83;;;23.70;73.40;;;;;;5111900;28;20432;-76
2023/09/15 07:37:06;;;;;;;5.83;5.33;;;23.70;73.50;;;;;;5107713;27;20795;-74
2023/09/15 07:39:35;;;;;;;7.07;6.43;;;23.80;74.50;;;;;;5106892;28;20462;-75
2023/09/15 07:42:08;;;;;;;4.67;4.10;;;23.90;74.60;;;;;;5110291;27;20442;-75
2023/09/15 07:44:37;;;;;;;9.57;8.80;;;24.00;74.50;;;;;;5111143;28;20445;-74
2023/09/15 07:47:09;;;;;;;10.47;9.37;;;24.10;72.30;;;;;;5112015;27;20495;-75
2023/09/15 07:49:38;;;;;;;5.10;4.60;;;24.00;72.60;;;;;;5110142;28;20473;-75
2023/09/15 07:52:06;;;;;;;7.67;6.97;;;23.90;73.60;;;;;;5112535;27;20466;-74
2023/09/15 07:54:36;;;;;;;8.70;7.83;;;23.90;72.60;;;;;;5110948;27;20443;-75
2023/09/15 07:57:05;;;;;;;5.70;5.20;;;23.90;72.90;;;;;;5106915;27;20458;-74
2023/09/15 07:59:33;;;;;;;5.17;4.60;;;23.90;72.90;;;;;;5111808;27;20446;-75
2023/09/15 08:02:01;;;;;;;6.23;5.63;;;23.80;73.90;;;;;;5112886;27;20501;-74
2023/09/15 08:04:29;;;;;;;7.50;6.90;;;23.90;73.30;;;;;;5109821;28;20449;-74
2023/09/15 08:06:57;;;;;;;4.70;4.30;;;23.90;73.10;;;;;;5107667;28;20448;-75
2023/09/15 08:09:26;;;;;;;4.93;4.63;;;24.00;73.70;;;;;;5110088;28;20552;-74
2023/09/15 08:11:59;;;;;;;6.37;5.80;;;24.00;73.50;;;;;;5106238;28;20561;-74
2023/09/15 08:14:28;;;;;;;4.90;4.50;;;24.10;73.30;;;;;;5109268;27;20821;-75
2023/09/15 08:16:57;;;;;;;5.97;5.50;;;24.10;72.50;;;;;;5111399;28;20439;-75
2023/09/15 08:19:27;;;;;;;8.07;7.37;;;24.10;73.10;;;;;;5110786;27;20567;-75
2023/09/15 08:21:55;;;;;;;4.90;4.50;;;24.20;72.20;;;;;;5112164;27;20534;-76
2023/09/15 08:24:24;;;;;;;8.40;7.50;;;24.20;72.40;;;;;;5110251;27;20515;-73
2023/09/15 08:26:52;;;;;;;7.53;6.73;;;24.20;72.00;;;;;;5106529;28;20490;-75
2023/09/15 08:29:22;;;;;;;5.50;5.00;;;24.20;72.00;;;;;;5107282;28;20918;-74
2023/09/15 08:31:50;;;;;;;6.67;5.73;;;24.20;72.90;;;;;;5106024;28;20460;-74
2023/09/15 08:34:18;;;;;;;8.80;8.00;;;24.20;72.40;;;;;;5108471;28;20443;-76
2023/09/15 08:36:47;;;;;;;5.60;5.20;;;24.30;71.90;;;;;;5108053;28;20453;-79
2023/09/15 08:39:15;;;;;;;5.57;4.60;;;24.30;72.90;;;;;;5103959;27;20507;-79
2023/09/15 08:41:51;;;;;;;5.40;4.90;;;24.40;73.70;;;;;;5101652;28;20451;-78
2023/09/15 08:44:21;;;;;;;5.67;5.17;;;24.50;73.40;;;;;;5103960;28;20954;-78
2023/09/15 08:46:51;;;;;;;5.67;5.17;;;24.60;73.00;;;;;;5103002;28;20452;-78
2023/09/15 08:49:20;;;;;;;4.50;4.00;;;24.70;72.70;;;;;;5102343;27;21436;-78
2023/09/15 08:51:49;;;;;;;5.43;4.93;;;24.90;72.40;;;;;;5120396;27;20936;-78
2023/09/15 08:54:18;;;;;;;4.77;4.37;;;25.00;72.10;;;;;;5130059;27;20475;-78
2023/09/15 08:56:46;;;;;;;4.83;4.43;;;25.00;71.80;;;;;;5112026;28;20927;-78
2023/09/15 08:59:16;;;;;;;4.90;4.40;;;25.10;71.60;;;;;;5111658;28;20439;-78
2023/09/15 09:01:44;;;;;;;4.93;4.53;;;25.20;71.40;;;;;;5112262;28;20429;-77
2023/09/15 09:04:14;;;;;;;5.47;5.00;;;25.20;71.30;;;;;;5112101;28;20469;-75
2023/09/15 09:06:43;;;;;;;4.63;4.23;;;25.20;71.20;;;;;;5112485;28;20429;-78
2023/09/15 09:09:12;;;;;;;5.00;4.43;;;25.30;71.00;;;;;;5094083;28;20898;-78
2023/09/15 09:11:41;;;;;;;4.80;4.40;;;25.30;70.90;;;;;;5112204;28;20487;-79
2023/09/15 09:14:12;;;;;;;5.23;4.83;;;25.30;70.80;;;;;;5107755;28;20945;-78
2023/09/15 09:16:43;;;;;;;5.43;4.93;;;25.40;70.70;;;;;;5114865;27;20918;-78
2023/09/15 09:19:13;;;;;;;5.73;5.07;;;25.40;70.60;;;;;;5112552;28;20427;-78
2023/09/15 09:21:41;;;;;;;5.40;4.90;;;25.40;70.50;;;;;;5121395;27;20576;-79
2023/09/15 09:24:10;;;;;;;4.67;4.30;;;25.40;70.40;;;;;;5131300;27;20426;-78
2023/09/15 09:26:39;;;;;;;4.90;4.50;;;25.50;70.40;;;;;;5111622;28;20445;-79
2023/09/15 09:29:07;;;;;;;5.90;5.40;;;25.50;70.30;;;;;;5111551;28;20429;-79
2023/09/15 09:31:35;;;;;;;5.37;4.83;;;25.50;70.20;;;;;;5109068;28;20454;-79
2023/09/15 09:34:04;;;;;;;5.53;5.13;;;25.50;70.20;;;;;;5111646;28;20467;-78
2023/09/15 09:36:34;;;;;;;5.13;4.73;;;25.50;70.10;;;;;;5111794;28;20910;-78
2023/09/15 09:39:02;;;;;;;4.63;4.33;;;25.50;70.10;;;;;;5111711;28;20447;-77
2023/09/15 09:41:30;;;;;;;5.37;4.97;;;25.50;70.10;;;;;;5111862;28;20422;-78
2023/09/15 09:44:04;;;;;;;5.20;4.77;;;25.50;70.10;;;;;;5116519;28;20456;-79
2023/09/15 09:46:33;;;;;;;4.93;4.53;;;25.60;70.00;;;;;;5091455;28;20420;-79
2023/09/15 09:49:02;;;;;;;6.77;5.70;;;25.60;70.00;;;;;;5097202;28;20453;-78
2023/09/15 09:51:30;;;;;;;5.03;4.63;;;25.60;70.00;;;;;;5109613;28;20446;-78
2023/09/15 09:54:01;;;;;;;4.30;4.00;;;25.50;70.00;;;;;;5108193;28;20835;-78
2023/09/15 09:56:32;;;;;;;5.17;4.67;;;25.60;70.10;;;;;;5091392;28;20780;-79
2023/09/15 09:59:09;;;;;;;4.83;4.43;;;25.60;70.00;;;;;;5090909;28;20485;-78
2023/09/15 10:01:37;;;;;;;4.60;4.20;;;25.60;70.00;;;;;;5089829;28;20444;-78
2023/09/15 10:04:06;;;;;;;4.63;4.33;;;25.60;70.00;;;;;;5101641;28;20791;-78
2023/09/15 10:06:36;;;;;;;4.90;4.57;;;25.60;69.90;;;;;;5111455;28;20442;-78
2023/09/15 10:09:07;;;;;;;6.07;5.57;;;25.60;69.90;;;;;;5111310;28;20435;-78
2023/09/15 10:11:35;;;;;;;5.20;4.70;;;25.60;69.90;;;;;;5113037;27;20455;-76
2023/09/15 10:14:06;;;;;;;5.40;4.77;;;25.70;69.90;;;;;;5131252;27;20498;-78
2023/09/15 10:16:35;;;;;;;5.50;5.10;;;25.60;69.90;;;;;;5115058;28;20430;-79
2023/09/15 10:19:04;;;;;;;5.13;4.67;;;25.60;69.90;;;;;;5115208;28;20492;-78
2023/09/15 10:21:35;;;;;;;4.87;4.47;;;25.70;69.90;;;;;;5115337;28;20509;-79
2023/09/15 10:24:09;;;;;;;5.17;4.77;;;25.70;69.80;;;;;;5097426;28;20497;-78
2023/09/15 10:26:41;;;;;;;4.60;4.30;;;25.70;69.80;;;;;;5111755;28;20442;-78
2023/09/15 10:29:12;;;;;;;4.93;4.63;;;25.70;69.90;;;;;;5114949;28;20520;-78
2023/09/15 10:31:42;;;;;;;4.97;4.57;;;25.70;69.80;;;;;;5112199;28;20544;-78
2023/09/15 10:34:10;;;;;;;4.87;4.43;;;25.70;69.80;;;;;;5129354;27;20948;-78
2023/09/15 10:36:40;;;;;;;5.20;4.80;;;25.70;69.80;;;;;;5113848;27;20489;-78
2023/09/15 10:39:14;;;;;;;5.57;4.90;;;25.70;69.80;;;;;;5109963;28;20458;-79
2023/09/15 10:41:43;;;;;;;5.33;4.90;;;25.70;69.80;;;;;;5114140;28;20424;-78
2023/09/15 10:44:12;;;;;;;4.13;3.83;;;25.80;69.70;;;;;;5111184;28;20444;-78
2023/09/15 10:46:42;;;;;;;4.83;4.43;;;25.80;69.70;;;;;;5115517;28;20948;-78
2023/09/15 10:49:15;;;;;;;5.13;4.63;;;25.80;69.60;;;;;;5096740;28;20896;-79
2023/09/15 10:51:57;;;;;;;5.03;4.63;;;25.90;69.60;;;;;;5114836;28;20443;-78
2023/09/15 10:54:31;;;;;;;4.93;4.53;;;25.90;69.60;;;;;;5109821;28;20470;-79
2023/09/15 10:57:01;;;;;;;4.50;4.20;;;25.90;69.50;;;;;;5113967;28;20455;-78
2023/09/15 10:59:29;;;;;;;4.27;3.97;;;26.10;69.30;;;;;;5114216;28;20429;-78
2023/09/15 11:01:58;;;;;;;4.23;3.93;;;26.30;68.70;;;;;;5115131;28;20428;-78
2023/09/15 11:04:32;;;;;;;3.97;3.73;;;26.60;68.20;;;;;;5108083;28;20445;-79
2023/09/15 11:07:02;;;;;;;4.97;4.57;;;26.80;67.50;;;;;;5108233;28;20964;-79
2023/09/15 11:09:32;;;;;;;4.67;4.27;;;27.00;67.00;;;;;;5110728;28;20453;-77
2023/09/15 11:12:03;;;;;;;4.77;4.37;;;27.10;66.60;;;;;;5094140;27;20460;-79
2023/09/15 11:14:31;;;;;;;4.77;4.47;;;27.20;66.50;;;;;;5109391;28;20466;-79
2023/09/15 11:16:59;;;;;;;4.83;4.33;;;27.20;66.20;;;;;;5112387;28;20511;-76
2023/09/15 11:19:30;;;;;;;4.30;4.00;;;27.10;66.40;;;;;;5113121;28;20449;-78
2023/09/15 11:22:03;;;;;;;6.17;4.70;;;27.10;66.60;;;;;;5113374;28;20558;-79
2023/09/15 11:24:33;;;;;;;6.63;6.03;;;26.90;66.80;;;;;;5110134;28;20447;-78
2023/09/15 11:27:02;;;;;;;5.30;4.90;;;26.90;67.00;;;;;;5106324;28;20459;-78
2023/09/15 11:29:32;;;;;;;8.30;6.67;;;26.90;67.30;;;;;;5112192;28;20453;-78
2023/09/15 11:32:01;;;;;;;10.50;9.47;;;26.80;67.20;;;;;;5109618;28;20465;-78
2023/09/15 11:34:30;;;;;;;12.13;8.83;;;26.80;67.30;;;;;;5112981;28;20469;-78
2023/09/15 11:37:00;;;;;;;11.20;8.87;;;26.80;67.40;;;;;;5093861;28;20818;-80
2023/09/15 11:39:29;;;;;;;10.87;9.77;;;26.80;67.50;;;;;;5112521;28;20802;-79
2023/09/15 11:42:01;;;;;;;10.40;9.40;;;26.80;67.60;;;;;;5109142;28;20452;-78
2023/09/15 11:44:31;;;;;;;12.30;10.57;;;26.80;67.60;;;;;;5105304;28;20442;-79
2023/09/15 11:47:01;;;;;;;11.53;10.50;;;26.90;67.80;;;;;;5106096;28;20449;-80
2023/09/15 11:49:30;;;;;;;12.93;11.37;;;27.10;67.40;;;;;;5102402;28;20484;-79
2023/09/15 11:51:59;;;;;;;12.13;10.87;;;27.20;67.10;;;;;;5100214;28;20456;-80
2023/09/15 11:54:28;;;;;;;12.20;11.00;;;27.40;66.80;;;;;;5102938;28;20482;-79
2023/09/15 11:56:58;;;;;;;16.17;11.57;;;27.50;66.40;;;;;;5082124;28;20978;-76
2023/09/15 11:59:29;;;;;;;11.53;9.87;;;27.50;66.40;;;;;;5103637;28;20455;-78
2023/09/15 12:01:59;;;;;;;12.33;11.00;;;27.60;66.30;;;;;;5099811;28;20934;-78
2023/09/15 12:04:29;;;;;;;13.30;11.10;;;27.70;66.30;;;;;;5099816;28;20455;-78
2023/09/15 12:06:58;;;;;;;13.10;11.80;;;27.80;66.00;;;;;;5105641;28;20545;-78
2023/09/15 12:09:27;;;;;;;15.50;11.27;;;27.90;65.80;;;;;;5103992;28;20465;-78
2023/09/15 12:11:55;;;;;;;13.30;10.60;;;27.90;65.80;;;;;;5102405;27;20823;-73
2023/09/15 12:14:25;;;;;;;11.90;10.13;;;28.00;65.70;;;;;;5105205;27;20468;-76
2023/09/15 12:16:58;;;;;;;12.07;10.87;;;28.00;65.90;;;;;;5105198;28;20466;-80
2023/09/15 12:19:26;;;;;;;13.40;10.70;;;28.00;65.70;;;;;;5108759;28;20485;-78
2023/09/15 12:21:59;;;;;;;12.67;11.20;;;28.10;65.50;;;;;;5107628;28;20619;-78
2023/09/15 12:24:28;;;;;;;12.40;11.20;;;28.10;65.60;;;;;;5111702;28;20537;-79
2023/09/15 12:26:59;;;;;;;11.10;9.30;;;28.20;65.50;;;;;;5108072;28;20524;-78
2023/09/15 12:29:28;;;;;;;12.00;10.60;;;28.20;65.50;;;;;;5109791;28;20458;-79
2023/09/15 12:31:58;;;;;;;11.03;9.10;;;28.20;65.40;;;;;;5092873;28;20503;-79
2023/09/15 12:34:27;;;;;;;12.80;11.40;;;28.30;65.30;;;;;;5107034;27;20470;-78
2023/09/15 12:36:56;;;;;;;12.13;10.57;;;28.30;65.30;;;;;;5092400;28;20446;-78
2023/09/15 12:39:25;;;;;;;10.47;9.37;;;28.30;65.30;;;;;;5109235;28;20786;-78
2023/09/15 12:42:01;;;;;;;10.53;9.40;;;28.30;65.30;;;;;;5112588;27;20458;-78
2023/09/15 12:44:42;;;;;;;12.60;11.50;;;28.40;65.10;;;;;;5113567;27;20521;-75
2023/09/15 12:47:12;;;;;;;11.13;10.00;;;28.40;65.10;;;;;;5092580;28;20954;-75
2023/09/15 12:49:41;;;;;;;10.53;9.43;;;28.50;64.90;;;;;;5111560;28;20453;-75
2023/09/15 12:52:10;;;;;;;16.20;9.83;;;28.60;64.80;;;;;;5111063;28;20489;-74
2023/09/15 12:54:38;;;;;;;11.00;9.63;;;28.70;64.60;;;;;;5110580;28;20832;-74
2023/09/15 12:57:07;;;;;;;10.13;9.03;;;28.70;64.50;;;;;;5109055;28;20503;-75
2023/09/15 12:59:35;;;;;;;8.40;7.67;;;28.80;64.50;;;;;;5108759;28;20477;-73